AFR602 SOCA-SBBE
Flight info
| Callsign | AFR602 |
|---|---|
| Flight time | 1h 14m |
| Altitude | 37000 |
| Route | EPKIP1A EPKIP DCT OIA UA555 VURTU/N0449F360 DCT KOGVU |
| Aircraft | A320/M-SDE2E3FGIJ1RWY/HB1 |
Departure
| Time | 2026-05-04 08:28 |
|---|---|
| Airport | Cayenne – Félix Eboué Airport (SOCA) |
Arrival
| Time | 2026-05-04 09:42 |
|---|---|
| Airport | Val de Cans/Júlio Cezar Ribeiro International Airport (SBBE) |
| Time | Latitude | Longitude | Altitude | Speed | Heading |
|---|---|---|---|---|---|
| 2026-05-04 08:04 | 4.82144 | -52.36360 | 28 ft | 0 kts | 343° |
| 2026-05-04 08:16 | 4.82141 | -52.36359 | 29 ft | 3 kts | 343° |
| 2026-05-04 08:17 | 4.82115 | -52.36351 | 29 ft | 4 kts | 346° |
| 2026-05-04 08:17 | 4.82089 | -52.36346 | 29 ft | 4 kts | 359° |
| 2026-05-04 08:17 | 4.82066 | -52.36351 | 29 ft | 4 kts | 54° |
| 2026-05-04 08:17 | 4.82063 | -52.36355 | 29 ft | 0 kts | 65° |
| 2026-05-04 08:21 | 4.82073 | -52.36333 | 29 ft | 8 kts | 66° |
| 2026-05-04 08:22 | 4.82089 | -52.36272 | 29 ft | 8 kts | 111° |
| 2026-05-04 08:22 | 4.82045 | -52.36246 | 29 ft | 7 kts | 159° |
| 2026-05-04 08:24 | 4.81846 | -52.36435 | 28 ft | 18 kts | 245° |
| 2026-05-04 08:24 | 4.81793 | -52.36551 | 28 ft | 19 kts | 245° |
| 2026-05-04 08:24 | 4.81736 | -52.36676 | 28 ft | 21 kts | 245° |
| 2026-05-04 08:24 | 4.81674 | -52.36812 | 28 ft | 22 kts | 244° |
| 2026-05-04 08:25 | 4.81630 | -52.36905 | 28 ft | 23 kts | 245° |
| 2026-05-04 08:25 | 4.81559 | -52.37054 | 27 ft | 25 kts | 244° |
| 2026-05-04 08:25 | 4.81463 | -52.37259 | 27 ft | 24 kts | 244° |
| 2026-05-04 08:25 | 4.81434 | -52.37356 | 26 ft | 20 kts | 284° |
| 2026-05-04 08:26 | 4.81407 | -52.37383 | 25 ft | 2 kts | 74° |
| 2026-05-04 08:27 | 4.82526 | -52.35016 | 420 ft | 170 kts | 64° |
| 2026-05-04 08:28 | 4.82992 | -52.33926 | 1099 ft | 170 kts | 75° |
| 2026-05-04 08:28 | 4.83274 | -52.32784 | 1886 ft | 167 kts | 76° |
| 2026-05-04 08:28 | 4.83550 | -52.31660 | 2547 ft | 165 kts | 76° |
| 2026-05-04 08:28 | 4.83829 | -52.30535 | 3192 ft | 164 kts | 76° |
| 2026-05-04 08:29 | 4.84121 | -52.29377 | 3537 ft | 182 kts | 76° |
| 2026-05-04 08:29 | 4.84451 | -52.28068 | 3794 ft | 206 kts | 77° |
| 2026-05-04 08:29 | 4.84822 | -52.26597 | 4122 ft | 230 kts | 76° |
| 2026-05-04 08:31 | 4.81919 | -52.16071 | 9050 ft | 290 kts | 156° |
| 2026-05-04 08:33 | 4.67037 | -52.10492 | 12861 ft | 352 kts | 155° |
| 2026-05-04 08:33 | 4.64730 | -52.09627 | 13488 ft | 356 kts | 155° |
| 2026-05-04 08:35 | 4.47993 | -52.03320 | 17266 ft | 378 kts | 156° |
| 2026-05-04 08:35 | 4.45522 | -52.02388 | 17796 ft | 381 kts | 156° |
| 2026-05-04 08:35 | 4.43034 | -52.01449 | 18297 ft | 384 kts | 156° |
| 2026-05-04 08:35 | 4.40521 | -52.00504 | 18741 ft | 387 kts | 157° |
| 2026-05-04 08:37 | 4.25056 | -51.94704 | 21419 ft | 405 kts | 158° |
| 2026-05-04 08:37 | 4.22445 | -51.93723 | 21859 ft | 407 kts | 158° |
| 2026-05-04 08:37 | 4.19782 | -51.92722 | 22311 ft | 410 kts | 158° |
| 2026-05-04 08:38 | 4.17096 | -51.91709 | 22717 ft | 414 kts | 158° |
| 2026-05-04 08:38 | 4.14387 | -51.90685 | 23123 ft | 418 kts | 158° |
| 2026-05-04 08:38 | 4.11655 | -51.89653 | 23528 ft | 421 kts | 158° |
| 2026-05-04 08:40 | 3.92170 | -51.82338 | 26014 ft | 432 kts | 159° |
| 2026-05-04 08:40 | 3.89354 | -51.81278 | 26356 ft | 434 kts | 159° |
| 2026-05-04 08:40 | 3.86545 | -51.80159 | 26684 ft | 435 kts | 154° |
| 2026-05-04 08:41 | 3.83917 | -51.78663 | 26999 ft | 436 kts | 147° |
| 2026-05-04 08:41 | 3.81374 | -51.77001 | 27311 ft | 437 kts | 147° |
| 2026-05-04 08:41 | 3.78818 | -51.75341 | 27617 ft | 439 kts | 147° |
| 2026-05-04 08:41 | 3.76249 | -51.73680 | 27919 ft | 440 kts | 147° |
| 2026-05-04 08:42 | 3.73670 | -51.72015 | 28215 ft | 442 kts | 147° |
| 2026-05-04 08:42 | 3.71081 | -51.70341 | 28505 ft | 444 kts | 147° |
| 2026-05-04 08:42 | 3.68485 | -51.68661 | 28791 ft | 445 kts | 148° |
| 2026-05-04 08:42 | 3.65880 | -51.66976 | 29070 ft | 447 kts | 148° |
| 2026-05-04 08:43 | 3.63300 | -51.65308 | 29335 ft | 448 kts | 148° |
| 2026-05-04 08:43 | 3.60677 | -51.63614 | 29607 ft | 450 kts | 148° |
| 2026-05-04 08:43 | 3.58045 | -51.61911 | 29881 ft | 451 kts | 148° |
| 2026-05-04 08:43 | 3.55409 | -51.60206 | 30139 ft | 452 kts | 148° |
| 2026-05-04 08:44 | 3.52766 | -51.58495 | 30350 ft | 453 kts | 148° |
| 2026-05-04 08:44 | 3.50114 | -51.56777 | 30562 ft | 454 kts | 148° |
| 2026-05-04 08:46 | 3.31447 | -51.44699 | 32173 ft | 456 kts | 148° |
| 2026-05-04 08:46 | 3.28787 | -51.42974 | 32440 ft | 455 kts | 148° |
| 2026-05-04 08:46 | 3.26133 | -51.41255 | 32752 ft | 453 kts | 148° |
| 2026-05-04 08:46 | 3.23490 | -51.39545 | 33087 ft | 451 kts | 148° |
| 2026-05-04 08:47 | 3.20857 | -51.37843 | 33382 ft | 450 kts | 148° |
| 2026-05-04 08:47 | 3.18225 | -51.36146 | 33670 ft | 450 kts | 148° |
| 2026-05-04 08:47 | 3.15599 | -51.34454 | 33946 ft | 449 kts | 148° |
| 2026-05-04 08:47 | 3.12972 | -51.32760 | 34183 ft | 449 kts | 148° |
| 2026-05-04 08:48 | 3.10350 | -51.31061 | 34385 ft | 449 kts | 148° |
| 2026-05-04 08:48 | 3.07726 | -51.29360 | 34582 ft | 450 kts | 148° |
| 2026-05-04 08:48 | 3.05098 | -51.27656 | 34769 ft | 451 kts | 148° |
| 2026-05-04 08:48 | 3.02467 | -51.25949 | 34952 ft | 451 kts | 148° |
| 2026-05-04 08:49 | 2.99827 | -51.24242 | 35133 ft | 452 kts | 148° |
| 2026-05-04 08:50 | 2.83941 | -51.13977 | 35969 ft | 457 kts | 148° |
| 2026-05-04 08:50 | 2.81270 | -51.12257 | 35966 ft | 457 kts | 148° |
| 2026-05-04 08:51 | 2.75935 | -51.08810 | 35970 ft | 457 kts | 148° |
| 2026-05-04 08:51 | 2.70602 | -51.05361 | 35969 ft | 456 kts | 148° |
| 2026-05-04 08:52 | 2.65265 | -51.01920 | 35967 ft | 456 kts | 148° |
| 2026-05-04 08:52 | 2.59928 | -50.98477 | 35970 ft | 456 kts | 148° |
| 2026-05-04 08:54 | 2.38607 | -50.84696 | 35969 ft | 456 kts | 148° |
| 2026-05-04 08:55 | 2.33281 | -50.81262 | 35969 ft | 454 kts | 148° |
| 2026-05-04 08:55 | 2.27979 | -50.77843 | 35969 ft | 453 kts | 148° |
| 2026-05-04 08:57 | 2.08422 | -50.68073 | 35972 ft | 451 kts | 163° |
| 2026-05-04 09:01 | 1.66514 | -50.55020 | 35971 ft | 451 kts | 163° |
| 2026-05-04 09:01 | 1.60531 | -50.53154 | 35969 ft | 450 kts | 163° |
| 2026-05-04 09:02 | 1.54549 | -50.51289 | 35969 ft | 450 kts | 163° |
| 2026-05-04 09:02 | 1.48566 | -50.49426 | 35969 ft | 450 kts | 163° |
| 2026-05-04 09:03 | 1.42584 | -50.47566 | 35971 ft | 450 kts | 162° |
| 2026-05-04 09:03 | 1.36602 | -50.45701 | 35969 ft | 450 kts | 162° |
| 2026-05-04 09:04 | 1.30666 | -50.43849 | 35967 ft | 450 kts | 162° |
| 2026-05-04 09:04 | 1.24684 | -50.41986 | 35969 ft | 450 kts | 162° |
| 2026-05-04 09:05 | 1.18709 | -50.40130 | 35967 ft | 449 kts | 162° |
| 2026-05-04 09:05 | 1.12740 | -50.38275 | 35967 ft | 449 kts | 162° |
| 2026-05-04 09:06 | 1.06780 | -50.36418 | 35969 ft | 449 kts | 162° |
| 2026-05-04 09:08 | 0.82914 | -50.28975 | 35964 ft | 451 kts | 162° |
| 2026-05-04 09:08 | 0.76919 | -50.27122 | 35964 ft | 451 kts | 162° |
| 2026-05-04 09:09 | 0.70966 | -50.25267 | 35963 ft | 451 kts | 162° |
| 2026-05-04 09:09 | 0.64974 | -50.23396 | 35961 ft | 451 kts | 162° |
| 2026-05-04 09:10 | 0.58975 | -50.21530 | 35961 ft | 451 kts | 162° |
| 2026-05-04 09:10 | 0.52980 | -50.19667 | 35961 ft | 451 kts | 162° |
| 2026-05-04 09:11 | 0.46999 | -50.17805 | 35962 ft | 450 kts | 161° |
| 2026-05-04 09:11 | 0.41032 | -50.15946 | 35961 ft | 449 kts | 161° |
| 2026-05-04 09:12 | 0.35064 | -50.14088 | 35961 ft | 449 kts | 161° |
| 2026-05-04 09:14 | 0.11034 | -50.06613 | 35961 ft | 454 kts | 161° |
| 2026-05-04 09:14 | 0.04997 | -50.04740 | 35961 ft | 454 kts | 161° |
| 2026-05-04 09:15 | -0.01039 | -50.02857 | 35967 ft | 455 kts | 161° |
| 2026-05-04 09:15 | -0.07088 | -50.00966 | 35961 ft | 456 kts | 161° |
| 2026-05-04 09:17 | -0.33347 | -49.92800 | 35663 ft | 455 kts | 161° |
| 2026-05-04 09:18 | -0.36328 | -49.91873 | 35435 ft | 454 kts | 161° |
| 2026-05-04 09:18 | -0.39344 | -49.90933 | 35015 ft | 454 kts | 161° |
| 2026-05-04 09:18 | -0.42346 | -49.89997 | 34481 ft | 451 kts | 161° |
| 2026-05-04 09:18 | -0.45333 | -49.89064 | 33920 ft | 449 kts | 160° |
| 2026-05-04 09:19 | -0.48308 | -49.88133 | 33327 ft | 446 kts | 161° |
| 2026-05-04 09:19 | -0.51259 | -49.87214 | 32789 ft | 443 kts | 161° |
| 2026-05-04 09:19 | -0.54191 | -49.86303 | 32238 ft | 440 kts | 161° |
| 2026-05-04 09:19 | -0.57104 | -49.85396 | 31698 ft | 437 kts | 161° |
| 2026-05-04 09:20 | -0.59999 | -49.84497 | 31170 ft | 435 kts | 161° |
| 2026-05-04 09:20 | -0.62812 | -49.83438 | 30640 ft | 430 kts | 152° |
| 2026-05-04 09:20 | -0.65361 | -49.81908 | 30117 ft | 426 kts | 141° |
| 2026-05-04 09:20 | -0.67661 | -49.80064 | 29548 ft | 423 kts | 139° |
| 2026-05-04 09:21 | -0.69929 | -49.78216 | 29050 ft | 418 kts | 139° |
| 2026-05-04 09:21 | -0.72175 | -49.76389 | 28557 ft | 414 kts | 139° |
| 2026-05-04 09:21 | -0.74401 | -49.74581 | 28074 ft | 410 kts | 139° |
| 2026-05-04 09:21 | -0.76603 | -49.72790 | 27605 ft | 407 kts | 139° |
| 2026-05-04 09:22 | -0.78788 | -49.71012 | 27142 ft | 403 kts | 139° |
| 2026-05-04 09:22 | -0.80935 | -49.69230 | 26686 ft | 399 kts | 135° |
| 2026-05-04 09:22 | -0.82765 | -49.67178 | 26223 ft | 394 kts | 124° |
| 2026-05-04 09:22 | -0.84267 | -49.64899 | 25786 ft | 391 kts | 122° |
| 2026-05-04 09:23 | -0.85744 | -49.62621 | 25313 ft | 390 kts | 122° |
| 2026-05-04 09:23 | -0.87215 | -49.60354 | 24844 ft | 388 kts | 122° |
| 2026-05-04 09:23 | -0.88681 | -49.58094 | 24354 ft | 387 kts | 122° |
| 2026-05-04 09:23 | -0.90144 | -49.55838 | 23864 ft | 386 kts | 122° |
| 2026-05-04 09:25 | -1.00213 | -49.40321 | 20377 ft | 368 kts | 123° |
| 2026-05-04 09:25 | -1.01582 | -49.38212 | 19874 ft | 355 kts | 123° |
| 2026-05-04 09:26 | -1.02902 | -49.36177 | 19424 ft | 343 kts | 123° |
| 2026-05-04 09:26 | -1.04176 | -49.34213 | 18989 ft | 331 kts | 123° |
| 2026-05-04 09:26 | -1.05407 | -49.32316 | 18576 ft | 320 kts | 123° |
| 2026-05-04 09:26 | -1.06600 | -49.30477 | 18158 ft | 311 kts | 123° |
| 2026-05-04 09:27 | -1.07764 | -49.28685 | 17743 ft | 306 kts | 123° |
| 2026-05-04 09:27 | -1.08917 | -49.26909 | 17349 ft | 304 kts | 123° |
| 2026-05-04 09:27 | -1.10064 | -49.25145 | 16964 ft | 302 kts | 123° |
| 2026-05-04 09:27 | -1.11206 | -49.23385 | 16577 ft | 302 kts | 123° |
| 2026-05-04 09:28 | -1.12350 | -49.21624 | 16205 ft | 302 kts | 123° |
| 2026-05-04 09:28 | -1.13495 | -49.19861 | 15833 ft | 302 kts | 123° |
| 2026-05-04 09:28 | -1.14639 | -49.18098 | 15451 ft | 303 kts | 123° |
| 2026-05-04 09:28 | -1.15785 | -49.16330 | 15070 ft | 303 kts | 123° |
| 2026-05-04 09:29 | -1.16932 | -49.14564 | 14691 ft | 304 kts | 122° |
| 2026-05-04 09:29 | -1.18085 | -49.12791 | 14300 ft | 304 kts | 122° |
| 2026-05-04 09:29 | -1.19240 | -49.11014 | 13913 ft | 305 kts | 122° |
| 2026-05-04 09:29 | -1.20398 | -49.09232 | 13496 ft | 306 kts | 122° |
| 2026-05-04 09:30 | -1.21552 | -49.07452 | 13094 ft | 305 kts | 122° |
| 2026-05-04 09:30 | -1.22700 | -49.05674 | 12700 ft | 304 kts | 122° |
| 2026-05-04 09:30 | -1.23841 | -49.03904 | 12330 ft | 302 kts | 122° |
| 2026-05-04 09:30 | -1.24946 | -49.02191 | 12139 ft | 294 kts | 122° |
| 2026-05-04 09:31 | -1.26055 | -49.00478 | 11764 ft | 293 kts | 122° |
| 2026-05-04 09:31 | -1.27154 | -48.98787 | 11175 ft | 289 kts | 122° |
| 2026-05-04 09:31 | -1.28230 | -48.97131 | 10748 ft | 279 kts | 122° |
| 2026-05-04 09:31 | -1.29260 | -48.95545 | 10363 ft | 270 kts | 122° |
| 2026-05-04 09:32 | -1.30288 | -48.93958 | 9979 ft | 270 kts | 122° |
| 2026-05-04 09:32 | -1.31313 | -48.92375 | 9572 ft | 272 kts | 122° |
| 2026-05-04 09:34 | -1.38475 | -48.81306 | 6731 ft | 271 kts | 121° |
| 2026-05-04 09:34 | -1.39502 | -48.79720 | 6287 ft | 272 kts | 121° |
| 2026-05-04 09:34 | -1.40529 | -48.78134 | 5835 ft | 272 kts | 121° |
| 2026-05-04 09:34 | -1.41553 | -48.76553 | 5428 ft | 270 kts | 121° |
| 2026-05-04 09:35 | -1.42569 | -48.74982 | 5021 ft | 268 kts | 121° |
| 2026-05-04 09:35 | -1.43588 | -48.73409 | 4560 ft | 268 kts | 121° |
| 2026-05-04 09:35 | -1.44595 | -48.71866 | 4041 ft | 262 kts | 121° |
| 2026-05-04 09:35 | -1.45555 | -48.70399 | 3766 ft | 245 kts | 121° |
| 2026-05-04 09:37 | -1.49770 | -48.61031 | 2860 ft | 191 kts | 86° |
| 2026-05-04 09:37 | -1.49520 | -48.59742 | 2782 ft | 189 kts | 67° |
| 2026-05-04 09:38 | -1.48834 | -48.58626 | 2694 ft | 189 kts | 47° |
| 2026-05-04 09:38 | -1.47913 | -48.57694 | 2496 ft | 188 kts | 46° |
| 2026-05-04 09:38 | -1.46992 | -48.56768 | 2264 ft | 187 kts | 45° |
| 2026-05-04 09:38 | -1.46078 | -48.55847 | 2027 ft | 186 kts | 45° |
| 2026-05-04 09:39 | -1.45195 | -48.54955 | 1818 ft | 174 kts | 45° |
| 2026-05-04 09:39 | -1.44371 | -48.54124 | 1572 ft | 163 kts | 45° |
| 2026-05-04 09:39 | -1.43600 | -48.53346 | 1349 ft | 152 kts | 45° |
| 2026-05-04 09:39 | -1.42889 | -48.52628 | 1187 ft | 141 kts | 46° |
| 2026-05-04 09:40 | -1.42212 | -48.51945 | 1000 ft | 136 kts | 44° |
| 2026-05-04 09:40 | -1.41547 | -48.51273 | 824 ft | 135 kts | 46° |
| 2026-05-04 09:40 | -1.40893 | -48.50615 | 660 ft | 136 kts | 44° |
| 2026-05-04 09:40 | -1.40219 | -48.49929 | 491 ft | 140 kts | 47° |
| 2026-05-04 09:41 | -1.39541 | -48.49229 | 314 ft | 141 kts | 45° |
| 2026-05-04 09:42 | -1.37198 | -48.46913 | 56 ft | 3 kts | 144° |
| 2026-05-04 09:43 | -1.37226 | -48.46915 | 56 ft | 7 kts | 207° |
| 2026-05-04 09:43 | -1.37276 | -48.46963 | 55 ft | 13 kts | 224° |
| 2026-05-04 09:43 | -1.37356 | -48.47041 | 54 ft | 19 kts | 225° |
| 2026-05-04 09:43 | -1.37466 | -48.47153 | 54 ft | 24 kts | 226° |
| 2026-05-04 09:44 | -1.37588 | -48.47277 | 52 ft | 26 kts | 225° |
| 2026-05-04 09:44 | -1.37716 | -48.47404 | 49 ft | 24 kts | 225° |
| 2026-05-04 09:44 | -1.37838 | -48.47528 | 48 ft | 26 kts | 225° |
| 2026-05-04 09:46 | -1.38662 | -48.48317 | 44 ft | 4 kts | 136° |
| 2026-05-04 09:46 | -1.38665 | -48.48297 | 45 ft | 2 kts | 96° |
| 2026-05-04 09:46 | -1.38665 | -48.48293 | 45 ft | 0 kts | 96° |
| 2026-05-04 09:47 | -1.38667 | -48.48277 | 45 ft | 5 kts | 95° |
| 2026-05-04 09:49 | -1.38723 | -48.47798 | 55 ft | 7 kts | 184° |
| 2026-05-04 09:49 | -1.38743 | -48.47799 | 55 ft | 0 kts | 184° |
| 2026-05-04 09:51 | -1.38831 | -48.47867 | 53 ft | 4 kts | 227° |
| 2026-05-04 09:51 | -1.38840 | -48.47876 | 53 ft | 0 kts | 223° |
| 2026-05-04 09:51 | -1.38847 | -48.47882 | 55 ft | 2 kts | 223° |
| 2026-05-04 09:51 | -1.38856 | -48.47892 | 55 ft | 2 kts | 225° |
| 2026-05-04 09:52 | -1.38859 | -48.47895 | 55 ft | 0 kts | 225° |